Time;durP1;ratioP1;P1;durP2;ratioP2;P2;SDS_P1;SDS_P2;PMS_P1;PMS_P2;Temp;Humidity;BMP_temperature;BMP_pressure;BME280_temperature;BME280_humidity;BME280_pressure;Samples;Min_cycle;Max_cycle;Signal;HPM_P1;HPM_P2
2022/03/13 00:10:19;;;;;;;141.68;41.38;;;;;;;-0.03;51.46;101678.04;713245;1176;115954;-69
2022/03/13 00:25:21;;;;;;;210.60;58.03;;;;;;;-0.26;52.32;101670.80;712962;1177;115999;-68
2022/03/13 00:40:24;;;;;;;250.10;67.37;;;;;;;-0.42;52.67;101668.53;712958;1174;116301;-68
2022/03/13 00:55:27;;;;;;;247.50;68.63;;;;;;;-0.56;53.27;101668.78;712960;1176;116292;-69
2022/03/13 01:10:29;;;;;;;235.40;66.85;;;;;;;-0.88;53.63;101665.09;712774;1174;116239;-68
2022/03/13 01:25:31;;;;;;;223.50;67.03;;;;;;;-0.79;53.98;101669.24;713087;1176;116425;-68
2022/03/13 01:40:33;;;;;;;184.65;53.05;;;;;;;-0.94;53.73;101659.20;712847;1174;116169;-68
2022/03/13 01:55:35;;;;;;;167.97;49.20;;;;;;;-1.09;54.16;101665.48;712935;1174;116190;-68
2022/03/13 02:10:37;;;;;;;70.03;23.13;;;;;;;-1.13;54.57;101661.27;713029;1175;116233;-68
2022/03/13 02:25:40;;;;;;;100.83;32.13;;;;;;;-1.34;55.36;101658.17;713053;1175;116066;-68
2022/03/13 02:40:47;;;;;;;104.97;33.10;;;;;;;-1.38;55.12;101654.78;712990;1174;115378;-68
2022/03/13 02:55:49;;;;;;;153.30;47.48;;;;;;;-1.55;55.69;101657.63;713067;1174;116076;-68
2022/03/13 03:10:52;;;;;;;128.90;40.40;;;;;;;-1.68;55.48;101664.71;712819;1175;116373;-68
2022/03/13 03:25:54;;;;;;;146.63;45.48;;;;;;;-1.86;55.58;101660.67;713150;1174;115403;-69
2022/03/13 03:40:56;;;;;;;205.93;57.30;;;;;;;-1.76;55.88;101652.81;712828;1174;115959;-68
2022/03/13 03:55:58;;;;;;;180.90;53.70;;;;;;;-1.93;55.85;101641.03;712947;1177;116103;-68
2022/03/13 04:11:01;;;;;;;168.30;47.78;;;;;;;-1.90;56.00;101634.99;712967;1175;115839;-68
2022/03/13 04:26:04;;;;;;;151.30;43.30;;;;;;;-2.03;56.04;101636.91;713015;1177;114310;-69
2022/03/13 04:41:06;;;;;;;70.98;24.70;;;;;;;-2.05;56.23;101633.50;712898;1176;116158;-68
2022/03/13 04:56:08;;;;;;;268.15;72.23;;;;;;;-2.10;56.77;101650.71;712974;1174;115957;-69
2022/03/13 05:11:11;;;;;;;167.03;52.10;;;;;;;-2.13;57.11;101643.89;713264;1174;115184;-69
2022/03/13 05:26:13;;;;;;;150.25;46.40;;;;;;;-2.13;56.79;101646.45;713131;1177;116146;-69
2022/03/13 05:41:15;;;;;;;169.37;50.70;;;;;;;-1.97;57.17;101648.83;713269;1175;116072;-68
2022/03/13 05:56:17;;;;;;;141.90;48.55;;;;;;;-1.77;57.07;101671.69;713295;1174;116042;-69
2022/03/13 06:11:19;;;;;;;129.63;45.93;;;;;;;-1.46;57.58;101689.27;713451;1174;116049;-72
2022/03/13 06:26:21;;;;;;;140.47;54.10;;;;;;;-0.90;57.56;101700.36;713378;1176;115971;-68
2022/03/13 06:41:24;;;;;;;181.87;62.30;;;;;;;0.06;57.55;101695.91;713230;1175;115886;-71
2022/03/13 06:56:26;;;;;;;201.20;66.80;;;;;;;1.89;57.48;101699.06;713305;1175;115600;-73
2022/03/13 07:11:28;;;;;;;227.08;78.25;;;;;;;3.66;56.65;101703.66;713429;1176;114600;-73
2022/03/13 07:26:30;;;;;;;351.97;123.20;;;;;;;5.55;55.83;101697.88;716862;1175;115127;-83
2022/03/13 07:41:33;;;;;;;69.48;31.13;;;;;;;7.31;52.44;101698.16;714385;1176;115586;-73
2022/03/13 07:56:37;;;;;;;51.00;20.70;;;;;;;9.24;45.79;101709.36;713422;1177;115024;-75
2022/03/13 08:11:41;;;;;;;26.98;13.50;;;;;;;10.06;42.71;101706.97;713404;1174;115773;-78
2022/03/13 08:26:43;;;;;;;38.03;17.80;;;;;;;11.23;39.40;101711.60;714009;1177;115547;-73
2022/03/13 08:41:46;;;;;;;32.80;15.70;;;;;;;12.03;36.66;101716.58;713746;1167;115653;-73
2022/03/13 08:56:48;;;;;;;23.70;10.80;;;;;;;13.07;36.06;101704.56;713264;1174;114644;-73
2022/03/13 09:11:53;;;;;;;61.20;25.30;;;;;;;13.04;35.92;101699.54;713276;1174;115331;-73
2022/03/13 09:26:55;;;;;;;33.15;13.73;;;;;;;13.98;35.30;101701.97;713711;1174;115887;-73
2022/03/13 09:41:57;;;;;;;23.30;10.37;;;;;;;14.62;35.31;101713.50;713027;1174;115153;-72
2022/03/13 09:57:04;;;;;;;38.18;15.65;;;;;;;14.67;35.51;101706.08;713279;1177;116087;-74
2022/03/13 10:12:17;;;;;;;31.07;17.43;;;;;;;14.98;34.34;101698.23;713007;1175;114678;-74
2022/03/13 10:27:23;;;;;;;22.10;12.30;;;;;;;15.54;34.53;101690.84;713185;1176;115107;-72
2022/03/13 10:42:31;;;;;;;40.43;14.97;;;;;;;15.46;34.36;101692.34;713821;1177;114768;-80
2022/03/13 10:57:33;;;;;;;15.08;7.73;;;;;;;16.19;34.27;101671.94;714067;1177;115414;-80
2022/03/13 11:12:40;;;;;;;20.90;10.87;;;;;;;16.70;34.03;101660.20;713657;1176;116015;-81
2022/03/13 11:27:46;;;;;;;67.98;26.43;;;;;;;17.35;34.01;101650.69;713257;1177;115981;-77
2022/03/13 11:42:51;;;;;;;21.77;10.97;;;;;;;17.65;33.46;101646.08;713350;1174;116091;-78
2022/03/13 11:58:01;;;;;;;16.70;9.00;;;;;;;17.60;33.87;101649.17;713655;1174;115409;-76
2022/03/13 12:13:07;;;;;;;22.80;9.80;;;;;;;18.10;33.96;101631.96;714003;1174;115141;-76
2022/03/13 12:28:10;;;;;;;34.63;13.35;;;;;;;18.28;34.49;101626.65;713661;1174;115329;-77
2022/03/13 12:43:16;;;;;;;19.03;9.23;;;;;;;18.19;33.98;101614.30;713754;1175;114608;-77
2022/03/13 12:58:19;;;;;;;33.20;15.60;;;;;;;18.71;33.70;101602.86;713451;1174;115356;-76
2022/03/13 13:13:25;;;;;;;16.80;8.80;;;;;;;18.91;33.88;101606.16;713816;1176;115468;-74
2022/03/13 13:28:29;;;;;;;76.00;20.70;;;;;;;19.79;33.79;101608.48;713915;1175;115235;-77
2022/03/13 13:43:32;;;;;;;21.30;11.63;;;;;;;19.58;33.47;101614.23;714065;1177;115089;-78
2022/03/13 13:58:34;;;;;;;37.78;17.28;;;;;;;27.42;30.32;101618.98;713817;1176;115965;-77
2022/03/13 14:13:37;;;;;;;51.55;20.05;;;;;;;31.14;29.16;101628.19;713413;1177;115607;-77
2022/03/13 14:28:41;;;;;;;24.20;15.20;;;;;;;31.27;28.51;101625.19;713691;1177;115391;-77
2022/03/13 14:43:44;;;;;;;86.33;45.35;;;;;;;31.51;28.18;101609.62;713892;1174;115922;-77
2022/03/13 14:58:48;;;;;;;26.80;16.50;;;;;;;31.12;27.75;101611.33;713621;1174;115381;-78
2022/03/13 15:13:51;;;;;;;27.38;18.13;;;;;;;28.04;27.25;101606.57;713790;1175;115790;-77
2022/03/13 15:28:53;;;;;;;149.17;70.07;;;;;;;24.22;29.02;101597.55;713728;1175;115913;-77
2022/03/13 15:43:56;;;;;;;25.95;15.68;;;;;;;18.89;31.86;101608.98;714102;1176;114823;-79
2022/03/13 15:59:00;;;;;;;61.90;30.65;;;;;;;18.69;33.32;101626.13;713995;1177;115478;-76
2022/03/13 16:14:03;;;;;;;63.30;37.35;;;;;;;20.00;33.46;101617.84;714438;1176;115317;-75
2022/03/13 16:29:06;;;;;;;105.13;43.75;;;;;;;19.79;33.29;101613.80;714127;1174;115432;-73
2022/03/13 16:44:08;;;;;;;41.93;21.13;;;;;;;14.64;35.73;101627.94;719333;1174;115761;-73
2022/03/13 16:59:11;;;;;;;58.03;24.98;;;;;;;12.25;37.79;101639.58;714354;1174;115762;-76
2022/03/13 17:14:13;;;;;;;560.88;271.50;;;;;;;11.02;39.29;101654.36;714174;1174;115175;-76
2022/03/13 17:29:16;;;;;;;453.13;140.83;;;;;;;10.11;41.29;101661.16;713718;1175;116469;-74
2022/03/13 17:44:20;;;;;;;125.30;53.33;;;;;;;9.40;42.72;101683.08;714154;1175;115849;-76
2022/03/13 17:59:23;;;;;;;224.75;76.55;;;;;;;8.79;43.37;101686.64;714384;1177;114959;-83
2022/03/13 18:14:26;;;;;;;115.10;41.30;;;;;;;8.44;44.37;101701.70;716397;1177;115329;-76
2022/03/13 18:29:28;;;;;;;134.18;46.58;;;;;;;8.04;44.93;101716.97;713965;1174;115780;-75
2022/03/13 18:44:31;;;;;;;135.70;41.13;;;;;;;7.69;45.71;101725.78;714367;1175;116071;-75
2022/03/13 18:59:46;;;;;;;106.10;35.55;;;;;;;7.37;47.00;101738.77;714169;1174;114508;-82
2022/03/13 19:14:51;;;;;;;111.57;34.67;;;;;;;7.06;48.08;101749.91;714566;1177;115210;-82
2022/03/13 19:29:54;;;;;;;73.43;30.40;;;;;;;6.69;49.32;101752.58;714849;1174;115101;-82
2022/03/13 19:45:00;;;;;;;154.07;44.17;;;;;;;6.48;50.23;101770.10;714269;1174;114467;-82
2022/03/13 20:00:05;;;;;;;89.43;31.43;;;;;;;6.32;50.62;101788.19;714632;1175;115228;-84
2022/03/13 20:15:10;;;;;;;99.33;39.70;;;;;;;6.06;51.64;101798.06;714400;1175;114470;-82
2022/03/13 20:30:13;;;;;;;77.80;26.07;;;;;;;5.66;52.60;101810.19;714352;1174;115559;-82
2022/03/13 20:45:16;;;;;;;58.70;21.28;;;;;;;5.44;53.47;101807.67;714017;1174;115167;-81
2022/03/13 21:00:20;;;;;;;79.30;26.63;;;;;;;5.24;54.16;101808.48;714042;1174;115018;-81
2022/03/13 21:15:23;;;;;;;66.47;23.70;;;;;;;4.94;55.42;101809.67;714280;1175;115694;-81
2022/03/13 21:30:26;;;;;;;49.13;19.23;;;;;;;4.78;56.05;101809.44;713738;1177;115093;-80
2022/03/13 21:45:28;;;;;;;74.10;25.75;;;;;;;4.44;55.97;101795.14;716387;1177;114562;-78
2022/03/13 22:00:30;;;;;;;99.78;29.70;;;;;;;4.20;57.28;101796.92;714664;1176;115215;-78
2022/03/13 22:15:35;;;;;;;91.25;27.75;;;;;;;4.04;57.80;101794.05;714474;1175;115236;-79
2022/03/13 22:30:39;;;;;;;69.50;30.80;;;;;;;3.86;58.89;101799.91;713930;1174;115115;-78
2022/03/13 22:45:42;;;;;;;88.45;26.73;;;;;;;3.78;58.79;101794.98;713988;1177;115771;-79
2022/03/13 23:00:45;;;;;;;101.30;29.43;;;;;;;3.67;59.36;101800.56;713648;1177;114317;-79
2022/03/13 23:15:47;;;;;;;77.58;26.03;;;;;;;3.52;59.71;101803.68;713970;1174;116050;-79
2022/03/13 23:30:52;;;;;;;43.13;17.33;;;;;;;3.33;60.00;101812.09;713843;1174;114909;-79
2022/03/13 23:45:54;;;;;;;60.30;19.80;;;;;;;3.23;60.21;101821.90;714051;1174;115103;-78
